Ria Da Coruna — EAGB — position and weather

sailwx.info

Track history (hours):
 
Tides and Currents Weather Stations Pressure Air Temp Water Temp Dewpoint Dewpoint Depression Visibility Wind Speed Wind Dir Waves Ship Positions

Ria Da Coruna

Last reported at 2016-Dec-09 03:33 UTC. Time now 2016-Dec-09 04:03 UTC.
Position N 43°56' W 001°31'.

Length 28 m.

Type: Fishing. MMSI: 224068650.

Date/timePositionNaut miles runAvg speedWind from/ knotsBaromVisibWave heightAir tempDewpointWater temp
2016-Dec-09 03:33N 43°56' W 001°31'0 0.1
2016-Dec-09 02:33N 43°56' W 001°31'3 3.5
2016-Dec-09 01:33N 43°52' W 001°32'0 0.1
2016-Dec-09 00:33N 43°52' W 001°32'1 1.1
2016-Dec-08 23:33N 43°53' W 001°32'0 0.1
2016-Dec-08 22:33N 43°53' W 001°32'5 5.0
2016-Dec-08 21:33N 43°50' W 001°37'7 7.3
2016-Dec-08 20:33N 43°57' W 001°33'6 6.3
2016-Dec-08 19:34N 43°50' W 001°33'6 5.9
2016-Dec-08 18:34N 43°47' W 001°40'1 1.1
2016-Dec-08 17:10N 43°46' W 001°42'610.4
2016-Dec-08 16:33N 43°41' W 001°47'28 5.3
2016-Dec-08 11:16N 43°19' W 002°11'2110.3
2016-Dec-08 09:17N 43°35' W 001°52'810.6
2016-Dec-08 08:31N 43°41' W 001°45'9 4.8
2016-Dec-08 06:33N 43°47' W 001°36'1 0.6
2016-Dec-08 05:32N 43°47' W 001°36'5 1.9
2016-Dec-08 03:11N 43°51' W 001°33'15 8.2
2016-Dec-08 01:21N 44°06' W 001°31'4 5.1
2016-Dec-08 00:33N 44°10' W 001°29'1110.8
2016-Dec-07 23:33N 43°59' W 001°31'10 9.7
2016-Dec-07 22:33N 43°50' W 001°35'2 2.0
2016-Dec-07 21:30N 43°48' W 001°33'2 2.1
2016-Dec-07 20:33N 43°49' W 001°35'3 3.4
2016-Dec-07 19:32N 43°51' W 001°39'0 0.5
2016-Dec-07 18:33N 43°50' W 001°39'1 0.6
2016-Dec-07 17:33N 43°50' W 001°39'1010.0
2016-Dec-07 16:33N 43°41' W 001°46'8 1.4
2016-Dec-07 10:32N 43°35' W 001°54'1010.0
2016-Dec-07 09:33N 43°43' W 001°45'1010.2
2016-Dec-07 08:33N 43°50' W 001°36'4 3.6
2016-Dec-07 07:20N 43°54' W 001°32'0 0.3
2016-Dec-07 06:33N 43°54' W 001°31'5 5.0
2016-Dec-07 05:33N 43°58' W 001°30'4 4.0
2016-Dec-07 04:33N 44°02' W 001°31'1 0.6
2016-Dec-07 03:16N 44°02' W 001°30'3 3.1
2016-Dec-07 02:15N 44°04' W 001°33'1 0.6
2016-Dec-07 00:15N 44°05' W 001°32'0 0.1
2016-Dec-06 23:33N 44°05' W 001°32'10 4.7
2016-Dec-06 21:32N 43°55' W 001°36'2 1.6
2016-Dec-06 20:31N 43°54' W 001°37'1 0.5
2016-Dec-06 18:33N 43°53' W 001°38'1 1.0
2016-Dec-06 17:33N 43°52' W 001°38'35 3.7
2016-Dec-06 08:04N 43°21' W 001°60'5 9.5
2016-Dec-06 07:33N 43°23' W 001°53'2 1.5
2016-Dec-06 06:33N 43°24' W 001°51'1 0.6
2016-Dec-06 05:33N 43°23' W 001°52'0 0.1
2016-Dec-06 04:33N 43°23' W 001°52'10 9.8
2016-Dec-06 03:33N 43°32' W 001°44'10 9.7
2016-Dec-06 02:33N 43°41' W 001°40'9 9.4
2016-Dec-06 01:33N 43°49' W 001°35'3 3.3
2016-Dec-06 00:33N 43°53' W 001°36'0 0.2
2016-Dec-05 23:33N 43°52' W 001°36'7 1.1
2016-Dec-05 17:32N 43°46' W 001°39'8 7.7
2016-Dec-05 16:33N 43°40' W 001°46'29 8.5
2016-Dec-05 13:10N 43°18' W 002°12'0 0.0
2016-Dec-05 12:26N 43°18' W 002°12'1 0.5
2016-Dec-05 10:10N 43°18' W 002°11'2 1.1
2016-Dec-05 08:22N 43°17' W 002°08'3 3.2
2016-Dec-05 07:33N 43°20' W 002°09'  
2016-Dec-02 11:07N 43°18' W 002°12'0 0.1
2016-Dec-02 09:33N 43°18' W 002°12'9 9.1
2016-Dec-02 08:32N 43°23' W 002°23'8 7.6
2016-Dec-02 07:32N 43°26' W 002°33'0 0.2
2016-Dec-02 06:33N 43°26' W 002°33'7 6.6
2016-Dec-02 05:26N 43°22' W 002°24'16 7.0
2016-Dec-02 03:12N 43°33' W 002°08'710.2
2016-Dec-02 02:33N 43°37' W 002°01'1010.1
2016-Dec-02 01:33N 43°44' W 001°50'1010.0
2016-Dec-02 00:33N 43°50' W 001°39'4 3.8
2016-Dec-01 23:33N 43°54' W 001°38'1 0.6
2016-Dec-01 21:13N 43°52' W 001°38'6 3.5
2016-Dec-01 19:32N 43°47' W 001°34'0 0.3
2016-Dec-01 18:32N 43°47' W 001°34'3 2.5
2016-Dec-01 17:25N 43°47' W 001°38'8 9.0
2016-Dec-01 16:32N 43°41' W 001°44'30 2.9
2016-Dec-01 06:15N 43°18' W 002°12'2 3.2
2016-Dec-01 05:32N 43°19' W 002°15'0 0.0
2016-Dec-01 02:20N 43°19' W 002°15'0 0.0
2016-Dec-01 01:24N 43°19' W 002°15'5 5.4
2016-Dec-01 00:32N 43°19' W 002°21'8 8.2
2016-Nov-30 23:32N 43°21' W 002°10'9 9.5
2016-Nov-30 22:33N 43°22' W 001°57'6 6.0
2016-Nov-30 21:33N 43°27' W 001°53'1 0.7
2016-Nov-30 20:31N 43°26' W 001°52'0 0.3
2016-Nov-30 19:33N 43°26' W 001°52'16 1.8
2016-Nov-30 10:16N 43°18' W 002°12'0 0.0
2016-Nov-30 07:30N 43°18' W 002°12'8 8.5
2016-Nov-30 06:33N 43°25' W 002°06'1010.3
2016-Nov-30 05:33N 43°34' W 001°58'1010.3
2016-Nov-30 04:33N 43°42' W 001°50'2 2.0
2016-Nov-30 03:33N 43°43' W 001°48'0 0.5
2016-Nov-30 02:33N 43°43' W 001°47'4 4.0
2016-Nov-30 01:33N 43°41' W 001°52'1010.3
2016-Nov-30 00:33N 43°31' W 001°55'5 4.7
2016-Nov-29 23:30N 43°26' W 001°54'1 1.1
2016-Nov-29 22:32N 43°26' W 001°53'0 0.2
2016-Nov-29 21:33N 43°26' W 001°53'2 1.7
2016-Nov-29 20:33N 43°27' W 001°53'7 3.5
2016-Nov-29 18:26N 43°21' W 001°58'  
Track history (hours):
 
Tides and Currents Weather Stations Pressure Air Temp Water Temp Dewpoint Dewpoint Depression Visibility Wind Speed Wind Dir Waves Ship Positions

Ria Da Coruna

Last reported at 2016-Dec-09 03:33 UTC. Time now 2016-Dec-09 04:03 UTC.
Position N 43°56' W 001°31'.

Length 28 m.

Type: Fishing. MMSI: 224068650.

Date/timePositionNaut miles runAvg speedWind from/ knotsBaromVisibWave heightAir tempDewpointWater temp
2016-Dec-09 03:33N 43°56' W 001°31'0 0.1
2016-Dec-09 02:33N 43°56' W 001°31'3 3.5
2016-Dec-09 01:33N 43°52' W 001°32'0 0.1
2016-Dec-09 00:33N 43°52' W 001°32'1 1.1
2016-Dec-08 23:33N 43°53' W 001°32'0 0.1
2016-Dec-08 22:33N 43°53' W 001°32'5 5.0
2016-Dec-08 21:33N 43°50' W 001°37'7 7.3
2016-Dec-08 20:33N 43°57' W 001°33'6 6.3
2016-Dec-08 19:34N 43°50' W 001°33'6 5.9
2016-Dec-08 18:34N 43°47' W 001°40'1 1.1
2016-Dec-08 17:10N 43°46' W 001°42'610.4
2016-Dec-08 16:33N 43°41' W 001°47'28 5.3
2016-Dec-08 11:16N 43°19' W 002°11'2110.3
2016-Dec-08 09:17N 43°35' W 001°52'810.6
2016-Dec-08 08:31N 43°41' W 001°45'9 4.8
2016-Dec-08 06:33N 43°47' W 001°36'1 0.6
2016-Dec-08 05:32N 43°47' W 001°36'5 1.9
2016-Dec-08 03:11N 43°51' W 001°33'15 8.2
2016-Dec-08 01:21N 44°06' W 001°31'4 5.1
2016-Dec-08 00:33N 44°10' W 001°29'1110.8
2016-Dec-07 23:33N 43°59' W 001°31'10 9.7
2016-Dec-07 22:33N 43°50' W 001°35'2 2.0
2016-Dec-07 21:30N 43°48' W 001°33'2 2.1
2016-Dec-07 20:33N 43°49' W 001°35'3 3.4
2016-Dec-07 19:32N 43°51' W 001°39'0 0.5
2016-Dec-07 18:33N 43°50' W 001°39'1 0.6
2016-Dec-07 17:33N 43°50' W 001°39'1010.0
2016-Dec-07 16:33N 43°41' W 001°46'8 1.4
2016-Dec-07 10:32N 43°35' W 001°54'1010.0
2016-Dec-07 09:33N 43°43' W 001°45'1010.2
2016-Dec-07 08:33N 43°50' W 001°36'4 3.6
2016-Dec-07 07:20N 43°54' W 001°32'0 0.3
2016-Dec-07 06:33N 43°54' W 001°31'5 5.0
2016-Dec-07 05:33N 43°58' W 001°30'4 4.0
2016-Dec-07 04:33N 44°02' W 001°31'1 0.6
2016-Dec-07 03:16N 44°02' W 001°30'3 3.1
2016-Dec-07 02:15N 44°04' W 001°33'1 0.6
2016-Dec-07 00:15N 44°05' W 001°32'0 0.1
2016-Dec-06 23:33N 44°05' W 001°32'10 4.7
2016-Dec-06 21:32N 43°55' W 001°36'2 1.6
2016-Dec-06 20:31N 43°54' W 001°37'1 0.5
2016-Dec-06 18:33N 43°53' W 001°38'1 1.0
2016-Dec-06 17:33N 43°52' W 001°38'35 3.7
2016-Dec-06 08:04N 43°21' W 001°60'5 9.5
2016-Dec-06 07:33N 43°23' W 001°53'2 1.5
2016-Dec-06 06:33N 43°24' W 001°51'1 0.6
2016-Dec-06 05:33N 43°23' W 001°52'0 0.1
2016-Dec-06 04:33N 43°23' W 001°52'10 9.8
2016-Dec-06 03:33N 43°32' W 001°44'10 9.7
2016-Dec-06 02:33N 43°41' W 001°40'9 9.4
2016-Dec-06 01:33N 43°49' W 001°35'3 3.3
2016-Dec-06 00:33N 43°53' W 001°36'0 0.2
2016-Dec-05 23:33N 43°52' W 001°36'7 1.1
2016-Dec-05 17:32N 43°46' W 001°39'8 7.7
2016-Dec-05 16:33N 43°40' W 001°46'29 8.5
2016-Dec-05 13:10N 43°18' W 002°12'0 0.0
2016-Dec-05 12:26N 43°18' W 002°12'1 0.5
2016-Dec-05 10:10N 43°18' W 002°11'2 1.1
2016-Dec-05 08:22N 43°17' W 002°08'3 3.2
2016-Dec-05 07:33N 43°20' W 002°09'  
2016-Dec-02 11:07N 43°18' W 002°12'0 0.1
2016-Dec-02 09:33N 43°18' W 002°12'9 9.1
2016-Dec-02 08:32N 43°23' W 002°23'8 7.6
2016-Dec-02 07:32N 43°26' W 002°33'0 0.2
2016-Dec-02 06:33N 43°26' W 002°33'7 6.6
2016-Dec-02 05:26N 43°22' W 002°24'16 7.0
2016-Dec-02 03:12N 43°33' W 002°08'710.2
2016-Dec-02 02:33N 43°37' W 002°01'1010.1
2016-Dec-02 01:33N 43°44' W 001°50'1010.0
2016-Dec-02 00:33N 43°50' W 001°39'4 3.8
2016-Dec-01 23:33N 43°54' W 001°38'1 0.6
2016-Dec-01 21:13N 43°52' W 001°38'6 3.5
2016-Dec-01 19:32N 43°47' W 001°34'0 0.3
2016-Dec-01 18:32N 43°47' W 001°34'3 2.5
2016-Dec-01 17:25N 43°47' W 001°38'8 9.0
2016-Dec-01 16:32N 43°41' W 001°44'30 2.9
2016-Dec-01 06:15N 43°18' W 002°12'2 3.2
2016-Dec-01 05:32N 43°19' W 002°15'0 0.0
2016-Dec-01 02:20N 43°19' W 002°15'0 0.0
2016-Dec-01 01:24N 43°19' W 002°15'5 5.4
2016-Dec-01 00:32N 43°19' W 002°21'8 8.2
2016-Nov-30 23:32N 43°21' W 002°10'9 9.5
2016-Nov-30 22:33N 43°22' W 001°57'6 6.0
2016-Nov-30 21:33N 43°27' W 001°53'1 0.7
2016-Nov-30 20:31N 43°26' W 001°52'0 0.3
2016-Nov-30 19:33N 43°26' W 001°52'16 1.8
2016-Nov-30 10:16N 43°18' W 002°12'0 0.0
2016-Nov-30 07:30N 43°18' W 002°12'8 8.5
2016-Nov-30 06:33N 43°25' W 002°06'1010.3
2016-Nov-30 05:33N 43°34' W 001°58'1010.3
2016-Nov-30 04:33N 43°42' W 001°50'2 2.0
2016-Nov-30 03:33N 43°43' W 001°48'0 0.5
2016-Nov-30 02:33N 43°43' W 001°47'4 4.0
2016-Nov-30 01:33N 43°41' W 001°52'1010.3
2016-Nov-30 00:33N 43°31' W 001°55'5 4.7
2016-Nov-29 23:30N 43°26' W 001°54'1 1.1
2016-Nov-29 22:32N 43°26' W 001°53'0 0.2
2016-Nov-29 21:33N 43°26' W 001°53'2 1.7
2016-Nov-29 20:33N 43°27' W 001°53'7 3.5
2016-Nov-29 18:26N 43°21' W 001°58'  

Dump ship's entire track history